EUS17DE EGPH-EIDW
Flight info
| Callsign | EUS17DE |
|---|---|
| Flight time | 0h 49m |
| Altitude | 22000 |
| Route | GOSAM P600 TRN/N0359F240 P600 BLACA P620 NIMAT NIMAT4L |
| Aircraft | A320/M-SDE3FGHIRWY/LB1 |
Departure
| Time | 2026-04-20 21:17 |
|---|---|
| Airport | Edinburgh Airport (EGPH) |
Arrival
| Time | 2026-04-20 22:06 |
|---|---|
| Airport | Dublin Airport (EIDW) |
| Time | Latitude | Longitude | Altitude | Speed | Heading |
|---|---|---|---|---|---|
| 2026-04-20 20:51 | 55.94789 | -3.35604 | 115 ft | 0 kts | 208° |
| 2026-04-20 20:57 | 55.94789 | -3.35605 | 117 ft | 0 kts | 209° |
| 2026-04-20 21:05 | 55.94791 | -3.35602 | 112 ft | 3 kts | 209° |
| 2026-04-20 21:05 | 55.94814 | -3.35580 | 114 ft | 3 kts | 218° |
| 2026-04-20 21:06 | 55.94829 | -3.35546 | 112 ft | 4 kts | 265° |
| 2026-04-20 21:06 | 55.94825 | -3.35508 | 113 ft | 1 kts | 298° |
| 2026-04-20 21:10 | 55.94829 | -3.35521 | 114 ft | 6 kts | 298° |
| 2026-04-20 21:10 | 55.94860 | -3.35622 | 115 ft | 11 kts | 299° |
| 2026-04-20 21:10 | 55.94905 | -3.35768 | 116 ft | 15 kts | 298° |
| 2026-04-20 21:10 | 55.94976 | -3.35859 | 115 ft | 13 kts | 8° |
| 2026-04-20 21:11 | 55.95049 | -3.35847 | 114 ft | 10 kts | 297° |
| 2026-04-20 21:11 | 55.95083 | -3.35959 | 115 ft | 12 kts | 298° |
| 2026-04-20 21:11 | 55.95112 | -3.36099 | 116 ft | 13 kts | 287° |
| 2026-04-20 21:11 | 55.95131 | -3.36285 | 116 ft | 15 kts | 244° |
| 2026-04-20 21:12 | 55.95078 | -3.36448 | 116 ft | 17 kts | 239° |
| 2026-04-20 21:12 | 55.95018 | -3.36622 | 115 ft | 16 kts | 239° |
| 2026-04-20 21:12 | 55.94961 | -3.36794 | 114 ft | 16 kts | 239° |
| 2026-04-20 21:12 | 55.94906 | -3.36956 | 114 ft | 15 kts | 239° |
| 2026-04-20 21:13 | 55.94849 | -3.37122 | 113 ft | 16 kts | 239° |
| 2026-04-20 21:13 | 55.94795 | -3.37282 | 116 ft | 15 kts | 239° |
| 2026-04-20 21:13 | 55.94739 | -3.37447 | 112 ft | 17 kts | 239° |
| 2026-04-20 21:13 | 55.94675 | -3.37636 | 115 ft | 18 kts | 239° |
| 2026-04-20 21:14 | 55.94613 | -3.37819 | 115 ft | 17 kts | 238° |
| 2026-04-20 21:14 | 55.94555 | -3.37988 | 114 ft | 15 kts | 239° |
| 2026-04-20 21:14 | 55.94502 | -3.38146 | 114 ft | 15 kts | 239° |
| 2026-04-20 21:14 | 55.94437 | -3.38339 | 114 ft | 19 kts | 238° |
| 2026-04-20 21:15 | 55.94370 | -3.38537 | 114 ft | 18 kts | 238° |
| 2026-04-20 21:15 | 55.94308 | -3.38718 | 115 ft | 15 kts | 238° |
| 2026-04-20 21:15 | 55.94294 | -3.38873 | 114 ft | 17 kts | 317° |
| 2026-04-20 21:15 | 55.94408 | -3.38975 | 114 ft | 14 kts | 6° |
| 2026-04-20 21:16 | 55.94443 | -3.38888 | 114 ft | 12 kts | 58° |
| 2026-04-20 21:16 | 55.94610 | -3.38397 | 112 ft | 84 kts | 59° |
| 2026-04-20 21:16 | 55.95026 | -3.37177 | 114 ft | 144 kts | 58° |
| 2026-04-20 21:16 | 55.95569 | -3.35532 | 595 ft | 157 kts | 60° |
| 2026-04-20 21:17 | 55.96270 | -3.34063 | 1393 ft | 156 kts | 44° |
| 2026-04-20 21:17 | 55.97086 | -3.32796 | 2219 ft | 155 kts | 46° |
| 2026-04-20 21:17 | 55.97892 | -3.31481 | 2865 ft | 162 kts | 45° |
| 2026-04-20 21:17 | 55.98765 | -3.30144 | 3513 ft | 168 kts | 42° |
| 2026-04-20 21:18 | 55.99738 | -3.29013 | 4267 ft | 167 kts | 20° |
| 2026-04-20 21:18 | 56.00909 | -3.28970 | 4913 ft | 178 kts | 351° |
| 2026-04-20 21:18 | 56.02112 | -3.29869 | 5349 ft | 198 kts | 333° |
| 2026-04-20 21:18 | 56.03193 | -3.31545 | 5799 ft | 219 kts | 304° |
| 2026-04-20 21:19 | 56.03579 | -3.34306 | 6169 ft | 246 kts | 266° |
| 2026-04-20 21:19 | 56.03259 | -3.37454 | 6607 ft | 270 kts | 253° |
| 2026-04-20 21:19 | 56.02692 | -3.40760 | 7292 ft | 283 kts | 252° |
| 2026-04-20 21:20 | 56.01626 | -3.47637 | 9157 ft | 291 kts | 253° |
| 2026-04-20 21:20 | 56.01108 | -3.51152 | 10033 ft | 296 kts | 253° |
| 2026-04-20 21:20 | 56.00579 | -3.54741 | 10718 ft | 306 kts | 253° |
| 2026-04-20 21:20 | 56.00010 | -3.58547 | 11060 ft | 328 kts | 253° |
| 2026-04-20 21:21 | 55.99404 | -3.62556 | 11714 ft | 337 kts | 253° |
| 2026-04-20 21:21 | 55.98785 | -3.66625 | 12505 ft | 343 kts | 253° |
| 2026-04-20 21:21 | 55.98153 | -3.70759 | 13302 ft | 347 kts | 253° |
| 2026-04-20 21:21 | 55.97509 | -3.74952 | 14096 ft | 352 kts | 253° |
| 2026-04-20 21:22 | 55.96858 | -3.79201 | 14799 ft | 357 kts | 253° |
| 2026-04-20 21:22 | 55.96199 | -3.83485 | 15501 ft | 361 kts | 252° |
| 2026-04-20 21:22 | 55.95527 | -3.87828 | 16225 ft | 364 kts | 252° |
| 2026-04-20 21:22 | 55.94849 | -3.92203 | 16932 ft | 368 kts | 252° |
| 2026-04-20 21:23 | 55.94153 | -3.96619 | 17651 ft | 371 kts | 250° |
| 2026-04-20 21:23 | 55.93086 | -4.00780 | 18347 ft | 370 kts | 235° |
| 2026-04-20 21:23 | 55.91482 | -4.04349 | 18993 ft | 369 kts | 220° |
| 2026-04-20 21:23 | 55.89462 | -4.07133 | 19595 ft | 368 kts | 211° |
| 2026-04-20 21:24 | 55.87340 | -4.09709 | 20217 ft | 371 kts | 211° |
| 2026-04-20 21:24 | 55.85198 | -4.12316 | 20837 ft | 374 kts | 211° |
| 2026-04-20 21:24 | 55.83037 | -4.14941 | 21450 ft | 377 kts | 211° |
| 2026-04-20 21:24 | 55.80864 | -4.17590 | 22055 ft | 380 kts | 211° |
| 2026-04-20 21:25 | 55.78677 | -4.20279 | 22369 ft | 383 kts | 212° |
| 2026-04-20 21:25 | 55.76519 | -4.22951 | 22431 ft | 371 kts | 212° |
| 2026-04-20 21:25 | 55.74444 | -4.25535 | 22430 ft | 361 kts | 212° |
| 2026-04-20 21:25 | 55.72388 | -4.28094 | 22427 ft | 359 kts | 212° |
| 2026-04-20 21:26 | 55.70361 | -4.30619 | 22434 ft | 358 kts | 212° |
| 2026-04-20 21:26 | 55.68315 | -4.33165 | 22426 ft | 356 kts | 212° |
| 2026-04-20 21:26 | 55.66288 | -4.35678 | 22410 ft | 356 kts | 212° |
| 2026-04-20 21:26 | 55.64258 | -4.38187 | 22408 ft | 356 kts | 212° |
| 2026-04-20 21:27 | 55.62227 | -4.40693 | 22413 ft | 356 kts | 212° |
| 2026-04-20 21:27 | 55.60198 | -4.43193 | 22405 ft | 356 kts | 212° |
| 2026-04-20 21:27 | 55.58161 | -4.45695 | 22412 ft | 356 kts | 212° |
| 2026-04-20 21:27 | 55.56128 | -4.48188 | 22423 ft | 356 kts | 212° |
| 2026-04-20 21:28 | 55.54093 | -4.50679 | 22429 ft | 356 kts | 212° |
| 2026-04-20 21:28 | 55.52064 | -4.53161 | 22430 ft | 355 kts | 212° |
| 2026-04-20 21:28 | 55.50034 | -4.55642 | 22428 ft | 355 kts | 212° |
| 2026-04-20 21:28 | 55.48008 | -4.58119 | 22428 ft | 355 kts | 212° |
| 2026-04-20 21:29 | 55.45976 | -4.60599 | 22427 ft | 354 kts | 212° |
| 2026-04-20 21:29 | 55.43976 | -4.63042 | 22423 ft | 354 kts | 212° |
| 2026-04-20 21:29 | 55.41954 | -4.65513 | 22435 ft | 354 kts | 212° |
| 2026-04-20 21:29 | 55.39930 | -4.67976 | 22433 ft | 353 kts | 212° |
| 2026-04-20 21:30 | 55.37879 | -4.70461 | 22399 ft | 353 kts | 212° |
| 2026-04-20 21:30 | 55.35887 | -4.72873 | 22396 ft | 352 kts | 212° |
| 2026-04-20 21:30 | 55.33872 | -4.75316 | 22395 ft | 352 kts | 212° |
| 2026-04-20 21:30 | 55.31823 | -4.77787 | 22397 ft | 351 kts | 211° |
| 2026-04-20 21:31 | 55.29722 | -4.79821 | 22397 ft | 349 kts | 204° |
| 2026-04-20 21:31 | 55.27552 | -4.81729 | 22395 ft | 349 kts | 204° |
| 2026-04-20 21:31 | 55.25379 | -4.83641 | 22386 ft | 349 kts | 204° |
| 2026-04-20 21:31 | 55.23204 | -4.85549 | 22385 ft | 349 kts | 204° |
| 2026-04-20 21:32 | 55.21027 | -4.87457 | 22378 ft | 349 kts | 204° |
| 2026-04-20 21:32 | 55.18857 | -4.89358 | 22383 ft | 349 kts | 204° |
| 2026-04-20 21:32 | 55.16683 | -4.91264 | 22380 ft | 349 kts | 204° |
| 2026-04-20 21:32 | 55.14512 | -4.93163 | 22372 ft | 349 kts | 205° |
| 2026-04-20 21:33 | 55.12340 | -4.95061 | 22410 ft | 349 kts | 206° |
| 2026-04-20 21:33 | 55.10170 | -4.96956 | 22408 ft | 348 kts | 206° |
| 2026-04-20 21:33 | 55.08007 | -4.98848 | 22407 ft | 347 kts | 206° |
| 2026-04-20 21:33 | 55.05848 | -5.00731 | 22400 ft | 347 kts | 205° |
| 2026-04-20 21:34 | 55.03686 | -5.02606 | 22392 ft | 347 kts | 205° |
| 2026-04-20 21:34 | 55.01531 | -5.04473 | 22392 ft | 347 kts | 205° |
| 2026-04-20 21:34 | 54.99372 | -5.06340 | 22390 ft | 346 kts | 206° |
| 2026-04-20 21:34 | 54.97214 | -5.08205 | 22392 ft | 346 kts | 205° |
| 2026-04-20 21:35 | 54.95052 | -5.10069 | 22389 ft | 346 kts | 205° |
| 2026-04-20 21:35 | 54.92895 | -5.11933 | 22381 ft | 346 kts | 205° |
| 2026-04-20 21:35 | 54.90745 | -5.13794 | 22377 ft | 346 kts | 206° |
| 2026-04-20 21:35 | 54.88560 | -5.15560 | 22366 ft | 346 kts | 201° |
| 2026-04-20 21:36 | 54.86241 | -5.16672 | 22372 ft | 346 kts | 193° |
| 2026-04-20 21:36 | 54.83890 | -5.17533 | 22361 ft | 346 kts | 193° |
| 2026-04-20 21:36 | 54.81532 | -5.18401 | 22364 ft | 346 kts | 193° |
| 2026-04-20 21:36 | 54.79172 | -5.19272 | 22362 ft | 346 kts | 193° |
| 2026-04-20 21:37 | 54.76818 | -5.20139 | 22359 ft | 346 kts | 193° |
| 2026-04-20 21:37 | 54.74462 | -5.21001 | 22360 ft | 346 kts | 193° |
| 2026-04-20 21:37 | 54.72111 | -5.21861 | 22365 ft | 346 kts | 193° |
| 2026-04-20 21:37 | 54.69754 | -5.22727 | 22360 ft | 346 kts | 193° |
| 2026-04-20 21:38 | 54.67396 | -5.23589 | 22354 ft | 346 kts | 193° |
| 2026-04-20 21:38 | 54.65039 | -5.24449 | 22354 ft | 346 kts | 193° |
| 2026-04-20 21:38 | 54.62681 | -5.25313 | 22339 ft | 346 kts | 193° |
| 2026-04-20 21:38 | 54.60327 | -5.26179 | 22339 ft | 347 kts | 193° |
| 2026-04-20 21:39 | 54.57963 | -5.27046 | 22342 ft | 348 kts | 193° |
| 2026-04-20 21:39 | 54.55592 | -5.27908 | 22343 ft | 348 kts | 193° |
| 2026-04-20 21:39 | 54.53221 | -5.28766 | 22337 ft | 348 kts | 193° |
| 2026-04-20 21:39 | 54.50846 | -5.29625 | 22332 ft | 349 kts | 193° |
| 2026-04-20 21:40 | 54.48527 | -5.30770 | 22339 ft | 347 kts | 203° |
| 2026-04-20 21:40 | 54.46346 | -5.32536 | 22345 ft | 347 kts | 208° |
| 2026-04-20 21:40 | 54.44184 | -5.34379 | 22349 ft | 347 kts | 207° |
| 2026-04-20 21:40 | 54.42048 | -5.36192 | 22369 ft | 347 kts | 208° |
| 2026-04-20 21:41 | 54.39853 | -5.38052 | 22364 ft | 347 kts | 208° |
| 2026-04-20 21:41 | 54.37718 | -5.39853 | 22336 ft | 347 kts | 208° |
| 2026-04-20 21:41 | 54.35545 | -5.41680 | 22342 ft | 347 kts | 209° |
| 2026-04-20 21:41 | 54.33374 | -5.43500 | 22342 ft | 347 kts | 208° |
| 2026-04-20 21:42 | 54.31206 | -5.45317 | 22340 ft | 347 kts | 209° |
| 2026-04-20 21:42 | 54.29038 | -5.47138 | 22348 ft | 348 kts | 209° |
| 2026-04-20 21:42 | 54.26863 | -5.48961 | 22344 ft | 348 kts | 209° |
| 2026-04-20 21:42 | 54.24695 | -5.50777 | 22346 ft | 348 kts | 209° |
| 2026-04-20 21:43 | 54.22522 | -5.52598 | 22346 ft | 348 kts | 209° |
| 2026-04-20 21:43 | 54.20350 | -5.54418 | 22341 ft | 347 kts | 209° |
| 2026-04-20 21:43 | 54.18180 | -5.56231 | 22339 ft | 347 kts | 209° |
| 2026-04-20 21:43 | 54.16008 | -5.58043 | 22344 ft | 348 kts | 208° |
| 2026-04-20 21:44 | 54.13830 | -5.59851 | 22355 ft | 348 kts | 208° |
| 2026-04-20 21:44 | 54.11660 | -5.61652 | 22353 ft | 348 kts | 208° |
| 2026-04-20 21:44 | 54.09484 | -5.63459 | 22324 ft | 348 kts | 209° |
| 2026-04-20 21:44 | 54.07300 | -5.65276 | 22339 ft | 357 kts | 209° |
| 2026-04-20 21:45 | 54.05012 | -5.67185 | 22341 ft | 370 kts | 209° |
| 2026-04-20 21:45 | 54.02699 | -5.69104 | 22331 ft | 365 kts | 209° |
| 2026-04-20 21:45 | 54.00462 | -5.70946 | 22195 ft | 352 kts | 209° |
| 2026-04-20 21:45 | 53.98292 | -5.72714 | 22001 ft | 341 kts | 207° |
| 2026-04-20 21:46 | 53.96053 | -5.73979 | 21665 ft | 340 kts | 195° |
| 2026-04-20 21:46 | 53.93709 | -5.74433 | 21244 ft | 340 kts | 185° |
| 2026-04-20 21:46 | 53.91348 | -5.74583 | 20832 ft | 338 kts | 185° |
| 2026-04-20 21:46 | 53.89013 | -5.74738 | 20416 ft | 335 kts | 185° |
| 2026-04-20 21:47 | 53.86684 | -5.74902 | 20021 ft | 333 kts | 185° |
| 2026-04-20 21:47 | 53.84375 | -5.75068 | 19607 ft | 331 kts | 185° |
| 2026-04-20 21:47 | 53.82075 | -5.75234 | 19193 ft | 330 kts | 184° |
| 2026-04-20 21:47 | 53.79783 | -5.75399 | 18803 ft | 329 kts | 184° |
| 2026-04-20 21:48 | 53.77526 | -5.75562 | 18628 ft | 318 kts | 184° |
| 2026-04-20 21:48 | 53.75380 | -5.75712 | 18323 ft | 303 kts | 184° |
| 2026-04-20 21:48 | 53.73301 | -5.75856 | 17858 ft | 294 kts | 184° |
| 2026-04-20 21:48 | 53.71297 | -5.75996 | 17463 ft | 284 kts | 184° |
| 2026-04-20 21:49 | 53.69993 | -5.76087 | 17124 ft | 281 kts | 185° |
| 2026-04-20 21:49 | 53.68089 | -5.76547 | 16600 ft | 275 kts | 199° |
| 2026-04-20 21:49 | 53.66363 | -5.77852 | 16072 ft | 270 kts | 215° |
| 2026-04-20 21:49 | 53.64944 | -5.79899 | 15762 ft | 268 kts | 230° |
| 2026-04-20 21:50 | 53.63917 | -5.82482 | 15463 ft | 266 kts | 245° |
| 2026-04-20 21:50 | 53.63338 | -5.85399 | 15022 ft | 263 kts | 258° |
| 2026-04-20 21:50 | 53.62949 | -5.88410 | 14715 ft | 263 kts | 258° |
| 2026-04-20 21:50 | 53.62550 | -5.91410 | 14461 ft | 261 kts | 257° |
| 2026-04-20 21:51 | 53.62150 | -5.94394 | 14173 ft | 261 kts | 257° |
| 2026-04-20 21:51 | 53.61748 | -5.97375 | 13853 ft | 261 kts | 257° |
| 2026-04-20 21:51 | 53.61346 | -6.00343 | 13528 ft | 260 kts | 257° |
| 2026-04-20 21:51 | 53.60945 | -6.03324 | 13213 ft | 260 kts | 257° |
| 2026-04-20 21:52 | 53.60545 | -6.06277 | 12914 ft | 258 kts | 256° |
| 2026-04-20 21:52 | 53.60146 | -6.09218 | 12602 ft | 257 kts | 256° |
| 2026-04-20 21:52 | 53.59748 | -6.12151 | 12299 ft | 256 kts | 256° |
| 2026-04-20 21:52 | 53.59351 | -6.15057 | 11995 ft | 255 kts | 256° |
| 2026-04-20 21:53 | 53.58954 | -6.17972 | 11673 ft | 255 kts | 255° |
| 2026-04-20 21:53 | 53.58561 | -6.20865 | 11353 ft | 254 kts | 256° |
| 2026-04-20 21:53 | 53.58164 | -6.23766 | 11047 ft | 253 kts | 256° |
| 2026-04-20 21:53 | 53.57772 | -6.26639 | 10726 ft | 252 kts | 256° |
| 2026-04-20 21:54 | 53.57379 | -6.29516 | 10423 ft | 251 kts | 256° |
| 2026-04-20 21:54 | 53.56994 | -6.32368 | 10318 ft | 251 kts | 257° |
| 2026-04-20 21:54 | 53.56964 | -6.35308 | 10205 ft | 254 kts | 282° |
| 2026-04-20 21:54 | 53.57692 | -6.38004 | 10016 ft | 255 kts | 308° |
| 2026-04-20 21:55 | 53.59032 | -6.39926 | 9751 ft | 255 kts | 331° |
| 2026-04-20 21:55 | 53.60599 | -6.41343 | 9457 ft | 255 kts | 332° |
| 2026-04-20 21:55 | 53.62151 | -6.42751 | 9156 ft | 254 kts | 332° |
| 2026-04-20 21:55 | 53.63700 | -6.44178 | 8867 ft | 253 kts | 328° |
| 2026-04-20 21:56 | 53.65001 | -6.46132 | 8575 ft | 251 kts | 305° |
| 2026-04-20 21:56 | 53.65706 | -6.48776 | 8295 ft | 248 kts | 279° |
| 2026-04-20 21:56 | 53.65660 | -6.51650 | 8007 ft | 245 kts | 253° |
| 2026-04-20 21:56 | 53.64909 | -6.54160 | 7673 ft | 239 kts | 227° |
| 2026-04-20 21:57 | 53.63654 | -6.55927 | 7348 ft | 235 kts | 212° |
| 2026-04-20 21:57 | 53.62308 | -6.57472 | 7021 ft | 232 kts | 212° |
| 2026-04-20 21:57 | 53.61001 | -6.58979 | 6690 ft | 224 kts | 212° |
| 2026-04-20 21:57 | 53.59733 | -6.60441 | 6339 ft | 217 kts | 212° |
| 2026-04-20 21:58 | 53.58508 | -6.61854 | 5995 ft | 211 kts | 212° |
| 2026-04-20 21:58 | 53.57310 | -6.63234 | 5648 ft | 206 kts | 211° |
| 2026-04-20 21:58 | 53.56146 | -6.64577 | 5322 ft | 201 kts | 211° |
| 2026-04-20 21:58 | 53.54981 | -6.65811 | 4996 ft | 201 kts | 205° |
| 2026-04-20 21:59 | 53.53662 | -6.66700 | 4647 ft | 203 kts | 193° |
| 2026-04-20 21:59 | 53.52271 | -6.67133 | 4308 ft | 204 kts | 182° |
| 2026-04-20 21:59 | 53.50904 | -6.67335 | 4168 ft | 196 kts | 182° |
| 2026-04-20 21:59 | 53.49563 | -6.67544 | 4086 ft | 186 kts | 182° |
| 2026-04-20 22:00 | 53.48309 | -6.67743 | 4004 ft | 175 kts | 182° |
| 2026-04-20 22:00 | 53.47160 | -6.67730 | 4001 ft | 163 kts | 160° |
| 2026-04-20 22:00 | 53.46215 | -6.66776 | 4011 ft | 159 kts | 129° |
| 2026-04-20 22:00 | 53.45739 | -6.65134 | 4014 ft | 159 kts | 98° |
| 2026-04-20 22:01 | 53.45635 | -6.63296 | 4028 ft | 159 kts | 96° |
| 2026-04-20 22:01 | 53.45533 | -6.61411 | 4044 ft | 160 kts | 96° |
| 2026-04-20 22:01 | 53.45433 | -6.59583 | 4019 ft | 159 kts | 96° |
| 2026-04-20 22:01 | 53.45331 | -6.57711 | 4002 ft | 159 kts | 96° |
| 2026-04-20 22:02 | 53.45223 | -6.55866 | 3943 ft | 160 kts | 97° |
| 2026-04-20 22:02 | 53.45107 | -6.53957 | 3536 ft | 169 kts | 96° |
| 2026-04-20 22:02 | 53.44998 | -6.51987 | 3201 ft | 170 kts | 96° |
| 2026-04-20 22:02 | 53.44892 | -6.50028 | 2936 ft | 166 kts | 95° |
| 2026-04-20 22:03 | 53.44791 | -6.48120 | 2703 ft | 163 kts | 95° |
| 2026-04-20 22:03 | 53.44691 | -6.46230 | 2477 ft | 162 kts | 95° |
| 2026-04-20 22:03 | 53.44593 | -6.44385 | 2252 ft | 161 kts | 95° |
| 2026-04-20 22:03 | 53.44492 | -6.42487 | 2031 ft | 161 kts | 95° |
| 2026-04-20 22:04 | 53.44395 | -6.40679 | 1819 ft | 154 kts | 95° |
| 2026-04-20 22:04 | 53.44301 | -6.38907 | 1601 ft | 147 kts | 95° |
| 2026-04-20 22:04 | 53.44212 | -6.37251 | 1398 ft | 139 kts | 95° |
| 2026-04-20 22:04 | 53.44128 | -6.35694 | 1201 ft | 131 kts | 95° |
| 2026-04-20 22:05 | 53.44050 | -6.34165 | 1011 ft | 129 kts | 91° |
| 2026-04-20 22:05 | 53.43985 | -6.32684 | 838 ft | 129 kts | 93° |
| 2026-04-20 22:05 | 53.43899 | -6.31193 | 649 ft | 129 kts | 95° |
| 2026-04-20 22:05 | 53.43822 | -6.29700 | 469 ft | 129 kts | 95° |
| 2026-04-20 22:06 | 53.43732 | -6.28221 | 294 ft | 128 kts | 94° |
| 2026-04-20 22:06 | 53.43644 | -6.26761 | 213 ft | 119 kts | 94° |
| 2026-04-20 22:06 | 53.43582 | -6.25646 | 211 ft | 71 kts | 95° |
| 2026-04-20 22:06 | 53.43520 | -6.25194 | 213 ft | 27 kts | 124° |
| 2026-04-20 22:07 | 53.43414 | -6.24907 | 216 ft | 30 kts | 120° |
| 2026-04-20 22:07 | 53.43357 | -6.24653 | 214 ft | 21 kts | 96° |
| 2026-04-20 22:07 | 53.43345 | -6.24450 | 211 ft | 13 kts | 97° |
| 2026-04-20 22:07 | 53.43270 | -6.24407 | 215 ft | 9 kts | 185° |
| 2026-04-20 22:08 | 53.43205 | -6.24421 | 214 ft | 7 kts | 207° |
| 2026-04-20 22:08 | 53.43190 | -6.24527 | 211 ft | 7 kts | 274° |
| 2026-04-20 22:08 | 53.43178 | -6.24584 | 216 ft | 8 kts | 210° |
| 2026-04-20 22:08 | 53.43119 | -6.24597 | 214 ft | 5 kts | 185° |
| 2026-04-20 22:09 | 53.43106 | -6.24598 | 218 ft | 1 kts | 183° |
| 2026-04-20 22:09 | 53.43099 | -6.24599 | 211 ft | 1 kts | 185° |
| 2026-04-20 22:09 | 53.43098 | -6.24599 | 211 ft | 0 kts | 185° |